sensor_id;sensor_type;location;lat;lon;timestamp;temperature;humidity
19017;DHT22;9641;51.494;6.670;2023-08-07T00:00:59;13.60;99.90
19017;DHT22;9641;51.494;6.670;2023-08-07T00:03:27;13.70;99.90
19017;DHT22;9641;51.494;6.670;2023-08-07T00:05:56;13.70;99.90
19017;DHT22;9641;51.494;6.670;2023-08-07T00:08:23;13.60;99.90
19017;DHT22;9641;51.494;6.670;2023-08-07T00:10:50;13.70;99.90
19017;DHT22;9641;51.494;6.670;2023-08-07T00:13:17;13.60;99.90
19017;DHT22;9641;51.494;6.670;2023-08-07T00:15:44;13.60;99.90
19017;DHT22;9641;51.494;6.670;2023-08-07T00:18:11;13.60;99.90
19017;DHT22;9641;51.494;6.670;2023-08-07T00:20:38;13.60;99.90
19017;DHT22;9641;51.494;6.670;2023-08-07T00:23:06;13.60;99.90
19017;DHT22;9641;51.494;6.670;2023-08-07T00:25:33;13.60;99.90
19017;DHT22;9641;51.494;6.670;2023-08-07T00:28:00;13.60;99.90
19017;DHT22;9641;51.494;6.670;2023-08-07T00:30:28;13.60;99.90
19017;DHT22;9641;51.494;6.670;2023-08-07T00:32:54;13.60;99.90
19017;DHT22;9641;51.494;6.670;2023-08-07T00:35:21;13.70;99.90
19017;DHT22;9641;51.494;6.670;2023-08-07T00:37:48;13.60;99.90
19017;DHT22;9641;51.494;6.670;2023-08-07T00:40:17;13.60;99.90
19017;DHT22;9641;51.494;6.670;2023-08-07T00:42:44;13.60;99.90
19017;DHT22;9641;51.494;6.670;2023-08-07T00:45:11;13.60;99.90
19017;DHT22;9641;51.494;6.670;2023-08-07T00:47:38;13.60;99.90
19017;DHT22;9641;51.494;6.670;2023-08-07T00:50:14;13.60;99.90
19017;DHT22;9641;51.494;6.670;2023-08-07T00:52:42;13.60;99.90
19017;DHT22;9641;51.494;6.670;2023-08-07T00:55:09;13.60;99.90
19017;DHT22;9641;51.494;6.670;2023-08-07T00:57:37;13.60;99.90
19017;DHT22;9641;51.494;6.670;2023-08-07T01:00:06;13.60;99.90
19017;DHT22;9641;51.494;6.670;2023-08-07T01:02:34;13.70;99.90
19017;DHT22;9641;51.494;6.670;2023-08-07T01:05:01;13.60;99.90
19017;DHT22;9641;51.494;6.670;2023-08-07T01:07:28;13.60;99.90
19017;DHT22;9641;51.494;6.670;2023-08-07T01:09:56;13.60;99.90
19017;DHT22;9641;51.494;6.670;2023-08-07T01:12:30;13.60;99.90
19017;DHT22;9641;51.494;6.670;2023-08-07T01:15:06;13.60;99.90
19017;DHT22;9641;51.494;6.670;2023-08-07T01:17:37;13.60;99.90
19017;DHT22;9641;51.494;6.670;2023-08-07T01:20:05;13.60;99.90
19017;DHT22;9641;51.494;6.670;2023-08-07T01:22:34;13.50;99.90
19017;DHT22;9641;51.494;6.670;2023-08-07T01:25:01;13.50;99.90
19017;DHT22;9641;51.494;6.670;2023-08-07T01:27:34;13.50;99.90
19017;DHT22;9641;51.494;6.670;2023-08-07T01:30:19;13.50;99.90
19017;DHT22;9641;51.494;6.670;2023-08-07T01:32:57;13.50;99.90
19017;DHT22;9641;51.494;6.670;2023-08-07T01:35:29;13.40;99.90
19017;DHT22;9641;51.494;6.670;2023-08-07T01:37:59;13.40;99.90
19017;DHT22;9641;51.494;6.670;2023-08-07T01:40:28;13.40;99.90
19017;DHT22;9641;51.494;6.670;2023-08-07T01:42:55;13.40;99.90
19017;DHT22;9641;51.494;6.670;2023-08-07T01:45:23;13.40;99.90
19017;DHT22;9641;51.494;6.670;2023-08-07T01:47:51;13.40;99.90
19017;DHT22;9641;51.494;6.670;2023-08-07T01:50:18;13.40;99.90
19017;DHT22;9641;51.494;6.670;2023-08-07T01:52:46;13.30;99.90
19017;DHT22;9641;51.494;6.670;2023-08-07T01:55:15;13.40;99.90
19017;DHT22;9641;51.494;6.670;2023-08-07T01:57:49;13.30;99.90
19017;DHT22;9641;51.494;6.670;2023-08-07T02:00:17;13.30;99.90
19017;DHT22;9641;51.494;6.670;2023-08-07T02:02:44;13.30;99.90
19017;DHT22;9641;51.494;6.670;2023-08-07T02:05:12;13.30;99.90
19017;DHT22;9641;51.494;6.670;2023-08-07T02:07:39;13.30;99.90
19017;DHT22;9641;51.494;6.670;2023-08-07T02:10:07;13.30;99.90
19017;DHT22;9641;51.494;6.670;2023-08-07T02:12:37;13.40;99.90
19017;DHT22;9641;51.494;6.670;2023-08-07T02:15:05;13.30;99.90
19017;DHT22;9641;51.494;6.670;2023-08-07T02:17:32;13.30;99.90
19017;DHT22;9641;51.494;6.670;2023-08-07T02:19:59;13.20;99.90
19017;DHT22;9641;51.494;6.670;2023-08-07T02:22:26;13.20;99.90
19017;DHT22;9641;51.494;6.670;2023-08-07T02:24:53;13.20;99.90
19017;DHT22;9641;51.494;6.670;2023-08-07T02:27:20;13.20;99.90
19017;DHT22;9641;51.494;6.670;2023-08-07T02:29:48;13.20;99.90
19017;DHT22;9641;51.494;6.670;2023-08-07T02:32:16;13.20;99.90
19017;DHT22;9641;51.494;6.670;2023-08-07T02:34:42;13.20;99.90
19017;DHT22;9641;51.494;6.670;2023-08-07T02:37:09;13.30;99.90
19017;DHT22;9641;51.494;6.670;2023-08-07T02:39:36;13.20;99.90
19017;DHT22;9641;51.494;6.670;2023-08-07T02:42:04;13.20;99.90
19017;DHT22;9641;51.494;6.670;2023-08-07T02:44:31;13.20;99.90
19017;DHT22;9641;51.494;6.670;2023-08-07T02:46:59;13.30;99.90
19017;DHT22;9641;51.494;6.670;2023-08-07T02:49:26;13.20;99.90
19017;DHT22;9641;51.494;6.670;2023-08-07T02:51:53;13.20;99.90
19017;DHT22;9641;51.494;6.670;2023-08-07T02:54:20;13.30;99.90
19017;DHT22;9641;51.494;6.670;2023-08-07T02:56:47;13.20;99.90
19017;DHT22;9641;51.494;6.670;2023-08-07T02:59:15;13.20;99.90
19017;DHT22;9641;51.494;6.670;2023-08-07T03:01:44;13.30;99.90
19017;DHT22;9641;51.494;6.670;2023-08-07T03:04:12;13.30;99.90
19017;DHT22;9641;51.494;6.670;2023-08-07T03:06:39;13.30;99.90
19017;DHT22;9641;51.494;6.670;2023-08-07T03:09:06;13.30;99.90
19017;DHT22;9641;51.494;6.670;2023-08-07T03:11:33;13.30;99.90
19017;DHT22;9641;51.494;6.670;2023-08-07T03:14:00;13.30;99.90
19017;DHT22;9641;51.494;6.670;2023-08-07T03:16:27;13.20;99.90
19017;DHT22;9641;51.494;6.670;2023-08-07T03:18:54;13.20;99.90
19017;DHT22;9641;51.494;6.670;2023-08-07T03:21:23;13.20;99.90
19017;DHT22;9641;51.494;6.670;2023-08-07T03:23:50;13.20;99.90
19017;DHT22;9641;51.494;6.670;2023-08-07T03:26:18;13.10;99.90
19017;DHT22;9641;51.494;6.670;2023-08-07T03:28:45;13.20;99.90
19017;DHT22;9641;51.494;6.670;2023-08-07T03:31:14;13.20;99.90
19017;DHT22;9641;51.494;6.670;2023-08-07T03:33:41;13.30;99.90
19017;DHT22;9641;51.494;6.670;2023-08-07T03:36:09;13.20;99.90
19017;DHT22;9641;51.494;6.670;2023-08-07T03:38:38;13.20;99.90
19017;DHT22;9641;51.494;6.670;2023-08-07T03:41:05;13.20;99.90
19017;DHT22;9641;51.494;6.670;2023-08-07T03:43:34;13.20;99.90
19017;DHT22;9641;51.494;6.670;2023-08-07T03:46:01;13.30;99.90
19017;DHT22;9641;51.494;6.670;2023-08-07T03:48:29;13.20;99.90
19017;DHT22;9641;51.494;6.670;2023-08-07T03:51:02;13.20;99.90
19017;DHT22;9641;51.494;6.670;2023-08-07T03:53:30;13.20;99.90
19017;DHT22;9641;51.494;6.670;2023-08-07T03:56:01;13.30;99.90
19017;DHT22;9641;51.494;6.670;2023-08-07T03:58:29;13.20;99.90
19017;DHT22;9641;51.494;6.670;2023-08-07T04:00:56;13.20;99.90
19017;DHT22;9641;51.494;6.670;2023-08-07T04:03:23;13.20;99.90
19017;DHT22;9641;51.494;6.670;2023-08-07T04:05:52;13.20;99.90
19017;DHT22;9641;51.494;6.670;2023-08-07T04:08:19;13.20;99.90
19017;DHT22;9641;51.494;6.670;2023-08-07T04:10:59;13.20;99.90
19017;DHT22;9641;51.494;6.670;2023-08-07T04:13:27;13.20;99.90
19017;DHT22;9641;51.494;6.670;2023-08-07T04:15:54;13.20;99.90
19017;DHT22;9641;51.494;6.670;2023-08-07T04:18:21;13.20;99.90
19017;DHT22;9641;51.494;6.670;2023-08-07T04:20:49;13.20;99.90
19017;DHT22;9641;51.494;6.670;2023-08-07T04:23:19;13.20;99.90
19017;DHT22;9641;51.494;6.670;2023-08-07T04:25:47;13.20;99.90
19017;DHT22;9641;51.494;6.670;2023-08-07T04:28:16;13.10;99.90
19017;DHT22;9641;51.494;6.670;2023-08-07T04:30:43;13.20;99.90
19017;DHT22;9641;51.494;6.670;2023-08-07T04:33:11;13.20;99.90
19017;DHT22;9641;51.494;6.670;2023-08-07T04:35:38;13.20;99.90
19017;DHT22;9641;51.494;6.670;2023-08-07T04:38:06;13.20;99.90
19017;DHT22;9641;51.494;6.670;2023-08-07T04:40:33;13.20;99.90
19017;DHT22;9641;51.494;6.670;2023-08-07T04:43:00;13.20;99.90
19017;DHT22;9641;51.494;6.670;2023-08-07T04:45:29;13.30;99.90
19017;DHT22;9641;51.494;6.670;2023-08-07T04:47:56;13.30;99.90
19017;DHT22;9641;51.494;6.670;2023-08-07T04:50:23;13.30;99.90
19017;DHT22;9641;51.494;6.670;2023-08-07T04:52:50;13.30;99.90
19017;DHT22;9641;51.494;6.670;2023-08-07T04:55:17;13.20;99.90
19017;DHT22;9641;51.494;6.670;2023-08-07T04:57:44;13.20;99.90
19017;DHT22;9641;51.494;6.670;2023-08-07T05:00:13;13.20;99.90
19017;DHT22;9641;51.494;6.670;2023-08-07T05:02:41;13.20;99.90
19017;DHT22;9641;51.494;6.670;2023-08-07T05:05:08;13.20;99.90
19017;DHT22;9641;51.494;6.670;2023-08-07T05:07:35;13.20;99.90
19017;DHT22;9641;51.494;6.670;2023-08-07T05:10:03;13.20;99.90
19017;DHT22;9641;51.494;6.670;2023-08-07T05:12:30;13.20;99.90
19017;DHT22;9641;51.494;6.670;2023-08-07T05:14:57;13.20;99.90
19017;DHT22;9641;51.494;6.670;2023-08-07T05:17:24;13.10;99.90
19017;DHT22;9641;51.494;6.670;2023-08-07T05:19:53;13.20;99.90
19017;DHT22;9641;51.494;6.670;2023-08-07T05:22:20;13.20;99.90
19017;DHT22;9641;51.494;6.670;2023-08-07T05:24:48;13.20;99.90
19017;DHT22;9641;51.494;6.670;2023-08-07T05:27:16;13.20;99.90
19017;DHT22;9641;51.494;6.670;2023-08-07T05:29:43;13.20;99.90
19017;DHT22;9641;51.494;6.670;2023-08-07T05:32:18;13.10;99.90
19017;DHT22;9641;51.494;6.670;2023-08-07T05:34:45;13.10;99.90
19017;DHT22;9641;51.494;6.670;2023-08-07T05:37:14;13.20;99.90
19017;DHT22;9641;51.494;6.670;2023-08-07T05:39:41;13.10;99.90
19017;DHT22;9641;51.494;6.670;2023-08-07T05:42:08;13.10;99.90
19017;DHT22;9641;51.494;6.670;2023-08-07T05:44:35;13.10;99.90
19017;DHT22;9641;51.494;6.670;2023-08-07T05:47:03;13.10;99.90
19017;DHT22;9641;51.494;6.670;2023-08-07T05:49:30;13.10;99.90
19017;DHT22;9641;51.494;6.670;2023-08-07T05:51:57;13.20;99.90
19017;DHT22;9641;51.494;6.670;2023-08-07T05:54:25;13.20;99.90
19017;DHT22;9641;51.494;6.670;2023-08-07T05:56:52;13.20;99.90
19017;DHT22;9641;51.494;6.670;2023-08-07T05:59:19;13.20;99.90
19017;DHT22;9641;51.494;6.670;2023-08-07T06:01:46;13.30;99.90
19017;DHT22;9641;51.494;6.670;2023-08-07T06:04:13;13.40;99.90
19017;DHT22;9641;51.494;6.670;2023-08-07T06:06:40;13.30;99.90
19017;DHT22;9641;51.494;6.670;2023-08-07T06:09:08;13.40;99.90
19017;DHT22;9641;51.494;6.670;2023-08-07T06:11:37;13.40;99.90
19017;DHT22;9641;51.494;6.670;2023-08-07T06:14:04;13.40;99.90
19017;DHT22;9641;51.494;6.670;2023-08-07T06:16:31;13.40;99.90
19017;DHT22;9641;51.494;6.670;2023-08-07T06:18:58;13.50;99.90
19017;DHT22;9641;51.494;6.670;2023-08-07T06:21:26;13.40;99.90
19017;DHT22;9641;51.494;6.670;2023-08-07T06:23:54;13.40;99.90
19017;DHT22;9641;51.494;6.670;2023-08-07T06:26:21;13.40;99.90
19017;DHT22;9641;51.494;6.670;2023-08-07T06:28:50;13.50;99.90
19017;DHT22;9641;51.494;6.670;2023-08-07T06:31:18;13.50;99.90
19017;DHT22;9641;51.494;6.670;2023-08-07T06:33:45;13.60;99.90
19017;DHT22;9641;51.494;6.670;2023-08-07T06:36:12;13.60;99.90
19017;DHT22;9641;51.494;6.670;2023-08-07T06:38:39;13.50;99.90
19017;DHT22;9641;51.494;6.670;2023-08-07T06:41:06;13.50;99.90
19017;DHT22;9641;51.494;6.670;2023-08-07T06:43:32;13.60;99.90
19017;DHT22;9641;51.494;6.670;2023-08-07T06:46:01;13.50;99.90
19017;DHT22;9641;51.494;6.670;2023-08-07T06:48:27;13.50;99.90
19017;DHT22;9641;51.494;6.670;2023-08-07T06:50:54;13.60;99.90
19017;DHT22;9641;51.494;6.670;2023-08-07T06:53:21;13.60;99.90
19017;DHT22;9641;51.494;6.670;2023-08-07T06:55:48;13.60;99.90
19017;DHT22;9641;51.494;6.670;2023-08-07T06:58:15;13.50;99.90
19017;DHT22;9641;51.494;6.670;2023-08-07T07:00:42;13.60;99.90
19017;DHT22;9641;51.494;6.670;2023-08-07T07:03:11;13.60;99.90
19017;DHT22;9641;51.494;6.670;2023-08-07T07:05:38;13.60;99.90
19017;DHT22;9641;51.494;6.670;2023-08-07T07:08:05;13.60;99.90
19017;DHT22;9641;51.494;6.670;2023-08-07T07:10:32;13.60;99.90
19017;DHT22;9641;51.494;6.670;2023-08-07T07:12:59;13.60;99.90
19017;DHT22;9641;51.494;6.670;2023-08-07T07:15:26;13.60;99.90
19017;DHT22;9641;51.494;6.670;2023-08-07T07:17:53;13.60;99.90
19017;DHT22;9641;51.494;6.670;2023-08-07T07:20:21;13.60;99.90
19017;DHT22;9641;51.494;6.670;2023-08-07T07:22:48;13.60;99.90
19017;DHT22;9641;51.494;6.670;2023-08-07T07:25:15;13.70;99.90
19017;DHT22;9641;51.494;6.670;2023-08-07T07:27:42;13.80;99.90
19017;DHT22;9641;51.494;6.670;2023-08-07T07:30:09;13.70;99.90
19017;DHT22;9641;51.494;6.670;2023-08-07T07:32:36;13.70;99.90
19017;DHT22;9641;51.494;6.670;2023-08-07T07:35:04;13.80;99.90
19017;DHT22;9641;51.494;6.670;2023-08-07T07:37:33;13.70;99.90
19017;DHT22;9641;51.494;6.670;2023-08-07T07:40:00;13.80;99.90
19017;DHT22;9641;51.494;6.670;2023-08-07T07:42:28;13.80;99.90
19017;DHT22;9641;51.494;6.670;2023-08-07T07:44:55;13.90;99.90
19017;DHT22;9641;51.494;6.670;2023-08-07T07:47:22;13.90;99.90
19017;DHT22;9641;51.494;6.670;2023-08-07T07:50:04;14.00;99.90
19017;DHT22;9641;51.494;6.670;2023-08-07T07:52:33;14.10;99.90
19017;DHT22;9641;51.494;6.670;2023-08-07T07:55:00;14.30;99.90
19017;DHT22;9641;51.494;6.670;2023-08-07T07:57:27;14.30;99.90
19017;DHT22;9641;51.494;6.670;2023-08-07T07:59:58;14.40;99.90
19017;DHT22;9641;51.494;6.670;2023-08-07T08:02:25;14.40;99.90
19017;DHT22;9641;51.494;6.670;2023-08-07T08:04:52;14.30;99.90
19017;DHT22;9641;51.494;6.670;2023-08-07T08:07:19;14.30;99.90
19017;DHT22;9641;51.494;6.670;2023-08-07T08:09:48;14.40;99.90
19017;DHT22;9641;51.494;6.670;2023-08-07T08:12:15;14.50;99.90
19017;DHT22;9641;51.494;6.670;2023-08-07T08:14:42;14.50;99.90
19017;DHT22;9641;51.494;6.670;2023-08-07T08:17:09;14.60;99.90
19017;DHT22;9641;51.494;6.670;2023-08-07T08:19:36;14.60;99.90
19017;DHT22;9641;51.494;6.670;2023-08-07T08:22:04;14.60;99.90
19017;DHT22;9641;51.494;6.670;2023-08-07T08:24:31;14.60;99.90
19017;DHT22;9641;51.494;6.670;2023-08-07T08:27:00;14.70;99.90
19017;DHT22;9641;51.494;6.670;2023-08-07T08:29:27;14.80;99.90
19017;DHT22;9641;51.494;6.670;2023-08-07T08:31:54;14.80;99.90
19017;DHT22;9641;51.494;6.670;2023-08-07T08:34:22;14.90;99.90
19017;DHT22;9641;51.494;6.670;2023-08-07T08:36:49;15.10;99.90
19017;DHT22;9641;51.494;6.670;2023-08-07T08:39:16;15.10;99.90
19017;DHT22;9641;51.494;6.670;2023-08-07T08:41:46;15.10;99.90
19017;DHT22;9641;51.494;6.670;2023-08-07T08:44:17;15.30;99.90
19017;DHT22;9641;51.494;6.670;2023-08-07T08:46:46;15.40;99.90
19017;DHT22;9641;51.494;6.670;2023-08-07T08:49:23;15.50;99.90
19017;DHT22;9641;51.494;6.670;2023-08-07T08:51:54;15.60;99.90
19017;DHT22;9641;51.494;6.670;2023-08-07T08:54:23;15.70;99.90
19017;DHT22;9641;51.494;6.670;2023-08-07T08:56:51;15.70;99.90
19017;DHT22;9641;51.494;6.670;2023-08-07T08:59:21;15.70;99.90
19017;DHT22;9641;51.494;6.670;2023-08-07T09:01:55;15.70;99.90
19017;DHT22;9641;51.494;6.670;2023-08-07T09:04:23;15.70;99.90
19017;DHT22;9641;51.494;6.670;2023-08-07T09:06:50;15.80;99.90
19017;DHT22;9641;51.494;6.670;2023-08-07T09:09:20;15.80;99.90
19017;DHT22;9641;51.494;6.670;2023-08-07T09:11:48;15.70;99.90
19017;DHT22;9641;51.494;6.670;2023-08-07T09:14:22;15.70;99.90
19017;DHT22;9641;51.494;6.670;2023-08-07T09:16:51;15.70;99.90
19017;DHT22;9641;51.494;6.670;2023-08-07T09:19:18;15.60;99.90
19017;DHT22;9641;51.494;6.670;2023-08-07T09:21:46;15.40;99.90
19017;DHT22;9641;51.494;6.670;2023-08-07T09:24:13;15.20;99.90
19017;DHT22;9641;51.494;6.670;2023-08-07T09:26:42;15.10;99.90
19017;DHT22;9641;51.494;6.670;2023-08-07T09:29:10;15.20;99.90
19017;DHT22;9641;51.494;6.670;2023-08-07T09:31:38;15.30;99.90
19017;DHT22;9641;51.494;6.670;2023-08-07T09:34:05;15.40;99.90
19017;DHT22;9641;51.494;6.670;2023-08-07T09:36:33;15.50;99.90
19017;DHT22;9641;51.494;6.670;2023-08-07T09:39:01;15.60;99.90
19017;DHT22;9641;51.494;6.670;2023-08-07T09:41:29;15.60;99.90
19017;DHT22;9641;51.494;6.670;2023-08-07T09:43:57;15.60;99.90
19017;DHT22;9641;51.494;6.670;2023-08-07T09:46:25;15.60;99.90
19017;DHT22;9641;51.494;6.670;2023-08-07T09:48:58;15.50;99.90
19017;DHT22;9641;51.494;6.670;2023-08-07T09:51:28;15.50;99.90
19017;DHT22;9641;51.494;6.670;2023-08-07T09:54:07;15.60;99.90
19017;DHT22;9641;51.494;6.670;2023-08-07T09:56:35;15.60;99.90
19017;DHT22;9641;51.494;6.670;2023-08-07T09:59:03;15.70;99.90
19017;DHT22;9641;51.494;6.670;2023-08-07T10:01:30;15.70;99.90
19017;DHT22;9641;51.494;6.670;2023-08-07T10:03:59;15.90;99.90
19017;DHT22;9641;51.494;6.670;2023-08-07T10:06:27;16.10;99.90
19017;DHT22;9641;51.494;6.670;2023-08-07T10:08:55;16.30;99.90
19017;DHT22;9641;51.494;6.670;2023-08-07T10:11:23;16.40;99.90
19017;DHT22;9641;51.494;6.670;2023-08-07T10:13:50;16.50;99.90
19017;DHT22;9641;51.494;6.670;2023-08-07T10:16:17;16.60;99.90
19017;DHT22;9641;51.494;6.670;2023-08-07T10:18:44;16.60;99.90
19017;DHT22;9641;51.494;6.670;2023-08-07T10:21:20;16.50;99.90
19017;DHT22;9641;51.494;6.670;2023-08-07T10:23:54;16.60;99.90
19017;DHT22;9641;51.494;6.670;2023-08-07T10:26:23;16.50;99.90
19017;DHT22;9641;51.494;6.670;2023-08-07T10:28:51;16.50;99.90
19017;DHT22;9641;51.494;6.670;2023-08-07T10:31:20;16.30;99.90
19017;DHT22;9641;51.494;6.670;2023-08-07T10:33:49;16.20;99.90
19017;DHT22;9641;51.494;6.670;2023-08-07T10:36:19;15.90;99.90
19017;DHT22;9641;51.494;6.670;2023-08-07T10:38:49;15.70;99.90
19017;DHT22;9641;51.494;6.670;2023-08-07T10:41:18;15.40;99.90
19017;DHT22;9641;51.494;6.670;2023-08-07T10:43:46;15.40;99.90
19017;DHT22;9641;51.494;6.670;2023-08-07T10:46:15;15.30;99.90
19017;DHT22;9641;51.494;6.670;2023-08-07T10:48:43;15.30;99.90
19017;DHT22;9641;51.494;6.670;2023-08-07T10:51:14;15.50;99.90
19017;DHT22;9641;51.494;6.670;2023-08-07T10:53:44;15.60;99.90
19017;DHT22;9641;51.494;6.670;2023-08-07T10:56:16;15.90;99.90
19017;DHT22;9641;51.494;6.670;2023-08-07T10:58:49;16.20;99.90
19017;DHT22;9641;51.494;6.670;2023-08-07T11:01:17;16.50;99.90
19017;DHT22;9641;51.494;6.670;2023-08-07T11:03:49;16.90;99.90
19017;DHT22;9641;51.494;6.670;2023-08-07T11:06:17;17.20;99.90
19017;DHT22;9641;51.494;6.670;2023-08-07T11:08:45;17.10;99.90
19017;DHT22;9641;51.494;6.670;2023-08-07T11:11:14;17.10;99.90
19017;DHT22;9641;51.494;6.670;2023-08-07T11:13:41;16.90;99.90
19017;DHT22;9641;51.494;6.670;2023-08-07T11:16:08;16.80;99.90
19017;DHT22;9641;51.494;6.670;2023-08-07T11:18:37;16.60;99.90
19017;DHT22;9641;51.494;6.670;2023-08-07T11:21:07;16.40;99.90
19017;DHT22;9641;51.494;6.670;2023-08-07T11:23:36;16.20;99.90
19017;DHT22;9641;51.494;6.670;2023-08-07T11:26:06;16.10;99.90
19017;DHT22;9641;51.494;6.670;2023-08-07T11:28:33;16.20;99.90
19017;DHT22;9641;51.494;6.670;2023-08-07T11:31:00;16.30;99.90
19017;DHT22;9641;51.494;6.670;2023-08-07T11:33:28;16.70;99.90
19017;DHT22;9641;51.494;6.670;2023-08-07T11:35:56;17.00;99.90
19017;DHT22;9641;51.494;6.670;2023-08-07T11:38:31;17.10;99.90
19017;DHT22;9641;51.494;6.670;2023-08-07T11:41:00;17.40;99.90
19017;DHT22;9641;51.494;6.670;2023-08-07T11:43:30;17.60;99.90
19017;DHT22;9641;51.494;6.670;2023-08-07T11:45:58;17.70;99.90
19017;DHT22;9641;51.494;6.670;2023-08-07T11:48:26;17.60;99.90
19017;DHT22;9641;51.494;6.670;2023-08-07T11:50:54;17.70;99.90
19017;DHT22;9641;51.494;6.670;2023-08-07T11:53:21;17.70;99.90
19017;DHT22;9641;51.494;6.670;2023-08-07T11:55:52;17.70;45.20
19017;DHT22;9641;51.494;6.670;2023-08-07T11:58:20;17.70;94.20
19017;DHT22;9641;51.494;6.670;2023-08-07T12:00:49;18.00;4.00
19017;DHT22;9641;51.494;6.670;2023-08-07T12:03:24;18.40;12.90
19017;DHT22;9641;51.494;6.670;2023-08-07T12:05:52;18.70;1.00
19017;DHT22;9641;51.494;6.670;2023-08-07T12:08:20;18.70;1.00
19017;DHT22;9641;51.494;6.670;2023-08-07T12:10:50;18.90;1.00
19017;DHT22;9641;51.494;6.670;2023-08-07T12:13:23;19.20;1.00
19017;DHT22;9641;51.494;6.670;2023-08-07T12:15:54;19.60;99.90
19017;DHT22;9641;51.494;6.670;2023-08-07T12:18:22;19.50;99.90
19017;DHT22;9641;51.494;6.670;2023-08-07T12:21:03;19.20;1.00
19017;DHT22;9641;51.494;6.670;2023-08-07T12:23:33;18.90;99.90
19017;DHT22;9641;51.494;6.670;2023-08-07T12:26:00;18.60;99.90
19017;DHT22;9641;51.494;6.670;2023-08-07T12:28:27;18.50;99.90
19017;DHT22;9641;51.494;6.670;2023-08-07T12:30:56;18.30;1.00
19017;DHT22;9641;51.494;6.670;2023-08-07T12:33:23;18.10;99.90
19017;DHT22;9641;51.494;6.670;2023-08-07T12:35:50;18.00;1.00
19017;DHT22;9641;51.494;6.670;2023-08-07T12:38:18;17.80;1.00
19017;DHT22;9641;51.494;6.670;2023-08-07T12:40:46;17.70;99.90
19017;DHT22;9641;51.494;6.670;2023-08-07T12:43:13;17.90;99.90
19017;DHT22;9641;51.494;6.670;2023-08-07T12:45:41;18.00;1.00
19017;DHT22;9641;51.494;6.670;2023-08-07T12:48:11;18.20;1.00
19017;DHT22;9641;51.494;6.670;2023-08-07T12:50:39;18.50;99.90
19017;DHT22;9641;51.494;6.670;2023-08-07T12:53:06;19.00;1.00
19017;DHT22;9641;51.494;6.670;2023-08-07T12:55:33;19.60;1.00
19017;DHT22;9641;51.494;6.670;2023-08-07T12:58:00;20.20;1.00
19017;DHT22;9641;51.494;6.670;2023-08-07T13:00:28;20.90;99.90
19017;DHT22;9641;51.494;6.670;2023-08-07T13:02:55;21.30;99.90
19017;DHT22;9641;51.494;6.670;2023-08-07T13:05:24;21.20;25.30
19017;DHT22;9641;51.494;6.670;2023-08-07T13:07:51;21.50;40.20
19017;DHT22;9641;51.494;6.670;2023-08-07T13:10:20;21.50;1.00
19017;DHT22;9641;51.494;6.670;2023-08-07T13:12:48;20.80;1.00
19017;DHT22;9641;51.494;6.670;2023-08-07T13:15:17;20.60;1.00
19017;DHT22;9641;51.494;6.670;2023-08-07T13:17:44;20.60;1.00
19017;DHT22;9641;51.494;6.670;2023-08-07T13:20:13;20.60;1.00
19017;DHT22;9641;51.494;6.670;2023-08-07T13:22:42;20.80;1.00
19017;DHT22;9641;51.494;6.670;2023-08-07T13:25:10;20.90;1.00
19017;DHT22;9641;51.494;6.670;2023-08-07T13:27:38;21.20;1.00
19017;DHT22;9641;51.494;6.670;2023-08-07T13:30:06;21.40;1.00
19017;DHT22;9641;51.494;6.670;2023-08-07T13:32:34;21.30;1.00
19017;DHT22;9641;51.494;6.670;2023-08-07T13:35:03;21.50;1.00
19017;DHT22;9641;51.494;6.670;2023-08-07T13:37:31;21.60;1.00
19017;DHT22;9641;51.494;6.670;2023-08-07T13:40:00;21.90;1.00
19017;DHT22;9641;51.494;6.670;2023-08-07T13:42:30;22.40;1.00
19017;DHT22;9641;51.494;6.670;2023-08-07T13:44:58;23.10;1.00
19017;DHT22;9641;51.494;6.670;2023-08-07T13:47:25;23.10;1.00
19017;DHT22;9641;51.494;6.670;2023-08-07T13:49:52;23.00;1.00
19017;DHT22;9641;51.494;6.670;2023-08-07T13:52:20;22.80;1.00
19017;DHT22;9641;51.494;6.670;2023-08-07T13:54:48;23.00;1.00
19017;DHT22;9641;51.494;6.670;2023-08-07T13:57:17;22.80;1.00
19017;DHT22;9641;51.494;6.670;2023-08-07T13:59:44;22.30;1.00
19017;DHT22;9641;51.494;6.670;2023-08-07T14:02:12;21.50;1.00
19017;DHT22;9641;51.494;6.670;2023-08-07T14:04:40;21.30;1.00
19017;DHT22;9641;51.494;6.670;2023-08-07T14:07:11;21.70;1.00
19017;DHT22;9641;51.494;6.670;2023-08-07T14:09:39;22.60;1.00
19017;DHT22;9641;51.494;6.670;2023-08-07T14:12:08;23.50;1.00
19017;DHT22;9641;51.494;6.670;2023-08-07T14:14:37;24.20;1.00
19017;DHT22;9641;51.494;6.670;2023-08-07T14:17:06;24.20;1.00
19017;DHT22;9641;51.494;6.670;2023-08-07T14:19:33;23.70;1.00
19017;DHT22;9641;51.494;6.670;2023-08-07T14:22:02;23.60;1.00
19017;DHT22;9641;51.494;6.670;2023-08-07T14:24:29;23.40;1.00
19017;DHT22;9641;51.494;6.670;2023-08-07T14:26:58;22.90;99.90
19017;DHT22;9641;51.494;6.670;2023-08-07T14:29:26;22.90;99.90
19017;DHT22;9641;51.494;6.670;2023-08-07T14:32:04;23.20;99.90
19017;DHT22;9641;51.494;6.670;2023-08-07T14:34:32;23.20;99.90
19017;DHT22;9641;51.494;6.670;2023-08-07T14:37:00;23.70;99.90
19017;DHT22;9641;51.494;6.670;2023-08-07T14:39:31;24.00;99.90
19017;DHT22;9641;51.494;6.670;2023-08-07T14:41:59;24.20;99.90
19017;DHT22;9641;51.494;6.670;2023-08-07T14:44:27;24.20;99.90
19017;DHT22;9641;51.494;6.670;2023-08-07T14:47:00;23.70;99.90
19017;DHT22;9641;51.494;6.670;2023-08-07T14:49:28;23.20;99.90
19017;DHT22;9641;51.494;6.670;2023-08-07T14:51:57;23.40;99.90
19017;DHT22;9641;51.494;6.670;2023-08-07T14:54:25;23.80;99.90
19017;DHT22;9641;51.494;6.670;2023-08-07T14:56:56;24.30;99.90
19017;DHT22;9641;51.494;6.670;2023-08-07T14:59:28;24.60;99.90
19017;DHT22;9641;51.494;6.670;2023-08-07T15:02:01;24.70;99.90
19017;DHT22;9641;51.494;6.670;2023-08-07T15:04:29;24.20;99.90
19017;DHT22;9641;51.494;6.670;2023-08-07T15:06:57;24.40;99.90
19017;DHT22;9641;51.494;6.670;2023-08-07T15:09:30;24.30;99.90
19017;DHT22;9641;51.494;6.670;2023-08-07T15:11:58;24.70;99.90
19017;DHT22;9641;51.494;6.670;2023-08-07T15:14:25;24.30;99.90
19017;DHT22;9641;51.494;6.670;2023-08-07T15:16:55;23.30;99.90
19017;DHT22;9641;51.494;6.670;2023-08-07T15:19:24;22.30;99.90
19017;DHT22;9641;51.494;6.670;2023-08-07T15:21:51;21.70;99.90
19017;DHT22;9641;51.494;6.670;2023-08-07T15:24:18;21.40;99.90
19017;DHT22;9641;51.494;6.670;2023-08-07T15:26:45;20.80;99.90
19017;DHT22;9641;51.494;6.670;2023-08-07T15:29:12;20.30;99.90
19017;DHT22;9641;51.494;6.670;2023-08-07T15:31:39;20.00;99.90
19017;DHT22;9641;51.494;6.670;2023-08-07T15:34:06;20.00;99.90
19017;DHT22;9641;51.494;6.670;2023-08-07T15:36:35;19.80;99.90
19017;DHT22;9641;51.494;6.670;2023-08-07T15:39:02;19.90;99.90
19017;DHT22;9641;51.494;6.670;2023-08-07T15:41:29;20.00;99.90
19017;DHT22;9641;51.494;6.670;2023-08-07T15:43:56;19.90;99.90
19017;DHT22;9641;51.494;6.670;2023-08-07T15:46:23;19.80;99.90
19017;DHT22;9641;51.494;6.670;2023-08-07T15:48:51;19.60;1.00
19017;DHT22;9641;51.494;6.670;2023-08-07T15:51:18;19.50;1.00
19017;DHT22;9641;51.494;6.670;2023-08-07T15:53:47;20.10;1.00